createdAt,value
2019-02-14T00:00:31.211Z,-1.76
2019-02-14T00:01:31.385Z,-1.79
2019-02-14T00:02:31.528Z,-1.74
2019-02-14T00:03:31.851Z,-1.73
2019-02-14T00:04:31.912Z,-1.77
2019-02-14T00:05:32.032Z,-1.74
2019-02-14T00:06:32.195Z,-1.74
2019-02-14T00:07:32.363Z,-1.73
2019-02-14T00:08:32.543Z,-1.72
2019-02-14T00:09:32.703Z,-1.72
2019-02-14T00:10:32.872Z,-1.66
2019-02-14T00:11:33.036Z,-1.74
2019-02-14T00:12:33.204Z,-1.73
2019-02-14T00:13:33.349Z,-1.72
2019-02-14T00:14:33.484Z,-1.64
2019-02-14T00:15:33.578Z,-1.72
2019-02-14T00:16:33.886Z,-1.59
2019-02-14T00:17:33.982Z,-1.51
2019-02-14T00:18:34.242Z,-1.56
2019-02-14T00:19:34.419Z,-1.52
2019-02-14T00:20:34.534Z,-1.52
2019-02-14T00:21:34.666Z,-1.48
2019-02-14T00:22:34.775Z,-1.43
2019-02-14T00:23:35.019Z,-1.43
2019-02-14T00:24:35.254Z,-1.35
2019-02-14T00:25:35.390Z,-1.45
2019-02-14T00:26:35.539Z,-1.38
2019-02-14T00:27:35.662Z,-1.48
2019-02-14T00:28:35.924Z,-1.48
2019-02-14T00:29:36.142Z,-1.52
2019-02-14T00:30:36.241Z,-1.55
2019-02-14T00:31:36.507Z,-1.61
2019-02-14T00:32:36.622Z,-1.66
2019-02-14T00:33:36.830Z,-1.59
2019-02-14T00:34:37.107Z,-1.73
2019-02-14T00:35:37.198Z,-1.66
2019-02-14T00:36:37.476Z,-1.64
2019-02-14T00:37:37.676Z,-1.67
2019-02-14T00:38:37.794Z,-1.70
2019-02-14T00:39:37.912Z,-1.74
2019-02-14T00:40:38.079Z,-1.79
2019-02-14T00:41:38.276Z,-1.76
2019-02-14T00:42:38.437Z,-1.95
2019-02-14T00:43:38.589Z,-1.92
2019-02-14T00:44:38.749Z,-1.88
2019-02-14T00:45:38.902Z,-1.90
2019-02-14T00:46:39.070Z,-1.94
2019-02-14T00:47:39.230Z,-1.97
2019-02-14T00:48:39.371Z,-2.03
2019-02-14T00:49:39.521Z,-1.97
2019-02-14T00:50:39.684Z,-2.08
2019-02-14T00:51:39.865Z,-2.02
2019-02-14T00:52:40.048Z,-2.03
2019-02-14T00:53:40.181Z,-2.09
2019-02-14T00:54:40.342Z,-2.05
2019-02-14T00:55:40.486Z,-2.08
2019-02-14T00:56:40.669Z,-2.10
2019-02-14T00:57:40.870Z,-2.15
2019-02-14T00:58:41.011Z,-2.16
2019-02-14T00:59:41.192Z,-2.13
2019-02-14T01:00:41.353Z,-2.18
2019-02-14T01:01:41.516Z,-2.10
2019-02-14T01:02:41.659Z,-2.12
2019-02-14T01:03:42.344Z,-2.18
2019-02-14T01:04:41.979Z,-2.15
2019-02-14T01:05:42.142Z,-2.18
2019-02-14T01:06:42.324Z,-2.16
2019-02-14T01:07:42.486Z,-2.08
2019-02-14T01:08:42.640Z,-2.06
2019-02-14T01:09:42.788Z,-2.13
2019-02-14T01:10:42.961Z,-2.10
2019-02-14T01:11:43.110Z,-2.16
2019-02-14T01:12:43.272Z,-2.13
2019-02-14T01:13:43.455Z,-2.10
2019-02-14T01:14:43.608Z,-2.12
2019-02-14T01:15:43.771Z,-2.13
2019-02-14T01:16:43.901Z,-2.12
2019-02-14T01:17:45.218Z,-2.21
2019-02-14T01:18:44.314Z,-2.16
2019-02-14T01:19:44.737Z,-2.12
2019-02-14T01:20:44.856Z,-2.16
2019-02-14T01:21:45.074Z,-2.20
2019-02-14T01:22:45.261Z,-2.27
2019-02-14T01:23:45.463Z,-2.15
2019-02-14T01:24:45.680Z,-2.23
2019-02-14T01:25:45.784Z,-1.98
2019-02-14T01:26:46.832Z,-2.00
2019-02-14T01:27:47.106Z,-2.05
2019-02-14T01:28:46.283Z,-2.00
2019-02-14T01:29:46.442Z,-2.03
2019-02-14T01:30:46.660Z,-2.02
2019-02-14T01:31:46.804Z,-2.13
2019-02-14T01:32:46.959Z,-2.20
2019-02-14T01:33:47.111Z,-2.15
2019-02-14T01:34:47.276Z,-2.16
2019-02-14T01:35:47.406Z,-2.16
2019-02-14T01:36:47.578Z,-2.12
2019-02-14T01:37:48.275Z,-2.18
2019-02-14T01:38:48.961Z,-2.10
2019-02-14T01:39:48.182Z,-2.10
2019-02-14T01:40:48.340Z,-2.16
2019-02-14T01:41:48.483Z,-2.08
2019-02-14T01:42:48.673Z,-2.21
2019-02-14T01:43:48.812Z,-2.18
2019-02-14T01:44:48.933Z,-2.08
2019-02-14T01:45:49.156Z,-2.02
2019-02-14T01:46:49.428Z,-2.06
2019-02-14T01:47:49.606Z,-2.13
2019-02-14T01:48:49.787Z,-2.09
2019-02-14T01:49:49.923Z,-2.06
2019-02-14T01:50:50.050Z,-2.15
2019-02-14T01:51:50.210Z,-2.10
2019-02-14T01:52:50.376Z,-2.00
2019-02-14T01:53:50.499Z,-1.95
2019-02-14T01:54:50.773Z,-1.98
2019-02-14T01:55:50.901Z,-2.00
2019-02-14T01:56:51.043Z,-1.98
2019-02-14T01:57:51.321Z,-1.95
2019-02-14T01:58:51.432Z,-2.03
2019-02-14T01:59:51.579Z,-2.02
2019-02-14T02:00:51.672Z,-2.05
2019-02-14T02:01:52.922Z,-2.02
2019-02-14T02:02:52.076Z,-2.09
2019-02-14T02:04:06.961Z,-1.97
2019-02-14T02:04:53.336Z,-2.05
2019-02-14T02:05:52.560Z,-2.08
2019-02-14T02:06:52.672Z,-2.13
2019-02-14T02:07:52.918Z,-2.15
2019-02-14T02:08:53.039Z,-2.15
2019-02-14T02:09:53.203Z,-2.18
2019-02-14T02:10:53.357Z,-2.15
2019-02-14T02:11:53.490Z,-2.09
2019-02-14T02:12:53.737Z,-2.20
2019-02-14T02:13:53.885Z,-2.16
2019-02-14T02:14:53.991Z,-2.20
2019-02-14T02:15:54.239Z,-2.21
2019-02-14T02:16:54.466Z,-2.27
2019-02-14T02:17:54.591Z,-2.32
2019-02-14T02:18:54.768Z,-2.35
2019-02-14T02:19:55.877Z,-2.34
2019-02-14T02:20:55.101Z,-2.24
2019-02-14T02:21:56.961Z,-2.34
2019-02-14T02:22:55.380Z,-2.32
2019-02-14T02:23:55.615Z,-2.40
2019-02-14T02:24:56.843Z,-2.46
2019-02-14T02:25:57.061Z,-2.42
2019-02-14T02:26:57.304Z,-2.39
2019-02-14T02:27:56.534Z,-2.48
2019-02-14T02:28:56.665Z,-2.46
2019-02-14T02:29:56.846Z,-2.53
2019-02-14T02:30:56.992Z,-2.52
2019-02-14T02:31:57.159Z,-2.53
2019-02-14T02:32:57.315Z,-2.53
2019-02-14T02:33:57.453Z,-2.39
2019-02-14T02:34:57.606Z,-2.42
2019-02-14T02:36:00.512Z,-2.52
2019-02-14T02:36:58.877Z,-2.45
2019-02-14T02:37:58.057Z,-2.52
2019-02-14T02:38:58.188Z,-2.42
2019-02-14T02:39:58.316Z,-2.48
2019-02-14T02:40:58.426Z,-2.50
2019-02-14T02:41:58.609Z,-2.48
2019-02-14T02:42:58.717Z,-2.52
2019-02-14T02:43:58.988Z,-2.53
2019-02-14T02:44:59.075Z,-2.55
2019-02-14T02:45:59.316Z,-2.56
2019-02-14T02:46:59.578Z,-2.67
2019-02-14T02:47:59.702Z,-2.67
2019-02-14T02:48:59.819Z,-2.63
2019-02-14T02:49:59.943Z,-2.61
2019-02-14T02:51:00.072Z,-2.60
2019-02-14T02:52:00.205Z,-2.66
2019-02-14T02:53:00.392Z,-2.66
2019-02-14T02:54:00.551Z,-2.68
2019-02-14T02:55:00.739Z,-2.67
2019-02-14T02:56:00.919Z,-2.61
2019-02-14T02:57:01.078Z,-2.64
2019-02-14T02:58:01.288Z,-2.68
2019-02-14T02:59:01.537Z,-2.77
2019-02-14T03:00:01.681Z,-2.73
2019-02-14T03:01:01.828Z,-2.70
2019-02-14T03:02:02.003Z,-2.64
2019-02-14T03:03:02.432Z,-2.67
2019-02-14T03:04:02.390Z,-2.63
2019-02-14T03:05:02.536Z,-2.56
2019-02-14T03:06:10.229Z,-2.60
2019-02-14T03:07:04.940Z,-2.50
2019-02-14T03:08:03.186Z,-2.46
2019-02-14T03:09:03.329Z,-2.53
2019-02-14T03:10:03.507Z,-2.49
2019-02-14T03:11:03.671Z,-2.48
2019-02-14T03:12:03.822Z,-2.46
2019-02-14T03:13:04.009Z,-2.45
2019-02-14T03:14:04.172Z,-2.48
2019-02-14T03:15:04.354Z,-2.53
2019-02-14T03:16:04.538Z,-2.45
2019-02-14T03:17:04.695Z,-2.46
2019-02-14T03:18:04.885Z,-2.50
2019-02-14T03:19:05.102Z,-2.43
2019-02-14T03:20:05.287Z,-2.46
2019-02-14T03:21:05.411Z,-2.50
2019-02-14T03:22:05.560Z,-2.42
2019-02-14T03:23:05.721Z,-2.46
2019-02-14T03:24:05.871Z,-2.48
2019-02-14T03:25:06.884Z,-2.42
2019-02-14T03:26:06.240Z,-2.50
2019-02-14T03:27:06.365Z,-2.42
2019-02-14T03:28:06.473Z,-2.43
2019-02-14T03:29:06.770Z,-2.43
2019-02-14T03:30:06.909Z,-2.39
2019-02-14T03:31:07.014Z,-2.43
2019-02-14T03:32:07.273Z,-2.46
2019-02-14T03:33:07.400Z,-2.42
2019-02-14T03:34:07.663Z,-2.40
2019-02-14T03:35:07.819Z,-2.40
2019-02-14T03:36:07.994Z,-2.39
2019-02-14T03:37:09.144Z,-2.40
2019-02-14T03:38:08.280Z,-2.34
2019-02-14T03:39:08.501Z,-2.34
2019-02-14T03:40:08.628Z,-2.29
2019-02-14T03:41:08.768Z,-2.35
2019-02-14T03:42:08.974Z,-2.32
2019-02-14T03:43:09.158Z,-2.27
2019-02-14T03:44:09.323Z,-2.43
2019-02-14T03:45:09.477Z,-2.48
2019-02-14T03:46:09.687Z,-2.39
2019-02-14T03:47:09.850Z,-2.43
2019-02-14T03:48:10.062Z,-2.43
2019-02-14T03:49:10.251Z,-2.40
2019-02-14T03:50:10.410Z,-2.43
2019-02-14T03:51:10.576Z,-2.45
2019-02-14T03:52:10.738Z,-2.42
2019-02-14T03:53:10.901Z,-2.48
2019-02-14T03:54:11.089Z,-2.49
2019-02-14T03:55:11.279Z,-2.49
2019-02-14T03:56:11.490Z,-2.42
2019-02-14T03:57:11.691Z,-2.40
2019-02-14T03:58:11.857Z,-2.46
2019-02-14T03:59:12.060Z,-2.52
2019-02-14T04:00:12.235Z,-2.52
2019-02-14T04:01:12.362Z,-2.48
2019-02-14T04:02:12.510Z,-2.53
2019-02-14T04:03:12.697Z,-2.52
2019-02-14T04:04:12.859Z,-2.55
2019-02-14T04:05:13.010Z,-2.50
2019-02-14T04:06:13.191Z,-2.52
2019-02-14T04:07:13.368Z,-2.52
2019-02-14T04:08:13.504Z,-2.52
2019-02-14T04:09:13.629Z,-2.45
2019-02-14T04:10:13.758Z,-2.39
2019-02-14T04:11:13.905Z,-2.49
2019-02-14T04:12:14.017Z,-2.45
2019-02-14T04:13:14.279Z,-2.49
2019-02-14T04:14:14.417Z,-2.39
2019-02-14T04:15:14.559Z,-2.42
2019-02-14T04:16:14.693Z,-2.30
2019-02-14T04:17:14.836Z,-2.30
2019-02-14T04:18:14.996Z,-2.34
2019-02-14T04:19:15.145Z,-2.39
2019-02-14T04:20:15.329Z,-2.21
2019-02-14T04:21:15.517Z,-2.34
2019-02-14T04:22:15.685Z,-2.27
2019-02-14T04:23:15.859Z,-2.26
2019-02-14T04:24:16.051Z,-2.34
2019-02-14T04:25:16.261Z,-2.23
2019-02-14T04:26:16.464Z,-2.26
2019-02-14T04:27:16.612Z,-2.34
2019-02-14T04:28:16.806Z,-2.30
2019-02-14T04:29:17.001Z,-2.27
2019-02-14T04:30:17.179Z,-2.34
2019-02-14T04:31:17.362Z,-2.32
2019-02-14T04:32:17.549Z,-2.35
2019-02-14T04:33:17.745Z,-2.34
2019-02-14T04:34:17.930Z,-2.35
2019-02-14T04:35:18.072Z,-2.30
2019-02-14T04:36:18.268Z,-2.35
2019-02-14T04:37:18.466Z,-2.35
2019-02-14T04:38:18.699Z,-2.40
2019-02-14T04:39:18.891Z,-2.39
2019-02-14T04:40:19.046Z,-2.39
2019-02-14T04:41:19.201Z,-2.37
2019-02-14T04:42:20.378Z,-2.30
2019-02-14T04:43:19.472Z,-2.34
2019-02-14T04:44:19.669Z,-2.42
2019-02-14T04:45:19.830Z,-2.32
2019-02-14T04:46:20.005Z,-2.45
2019-02-14T04:47:20.149Z,-2.46
2019-02-14T04:48:20.319Z,-2.42
2019-02-14T04:49:20.475Z,-2.46
2019-02-14T04:50:21.612Z,-2.46
2019-02-14T04:51:20.889Z,-2.45
2019-02-14T04:52:21.063Z,-2.48
2019-02-14T04:53:21.199Z,-2.46
2019-02-14T04:54:21.336Z,-2.49
2019-02-14T04:55:21.483Z,-2.49
2019-02-14T04:56:21.632Z,-2.43
2019-02-14T04:57:21.763Z,-2.49
2019-02-14T04:58:21.890Z,-2.48
2019-02-14T04:59:22.064Z,-2.50
2019-02-14T05:00:22.211Z,-2.39
2019-02-14T05:01:22.381Z,-2.46
2019-02-14T05:02:22.577Z,-2.46
2019-02-14T05:03:22.735Z,-2.49
2019-02-14T05:04:22.885Z,-2.52
2019-02-14T05:05:23.870Z,-2.49
2019-02-14T05:06:23.275Z,-2.48
2019-02-14T05:07:23.425Z,-2.50
2019-02-14T05:08:23.620Z,-2.58
2019-02-14T05:09:23.775Z,-2.55
2019-02-14T05:10:23.933Z,-2.64
2019-02-14T05:11:24.118Z,-2.56
2019-02-14T05:12:26.156Z,-2.64
2019-02-14T05:13:24.510Z,-2.60
2019-02-14T05:14:24.672Z,-2.56
2019-02-14T05:15:24.859Z,-2.71
2019-02-14T05:16:25.029Z,-2.74
2019-02-14T05:17:25.181Z,-2.77
2019-02-14T05:18:25.378Z,-2.71
2019-02-14T05:19:25.487Z,-2.74
2019-02-14T05:20:25.693Z,-2.74
2019-02-14T05:21:25.861Z,-2.71
2019-02-14T05:22:26.012Z,-2.74
2019-02-14T05:23:26.161Z,-2.77
2019-02-14T05:24:26.329Z,-2.71
2019-02-14T05:25:26.520Z,-2.79
2019-02-14T05:26:26.671Z,-2.81
2019-02-14T05:27:26.877Z,-2.82
2019-02-14T05:28:27.047Z,-2.81
2019-02-14T05:29:27.180Z,-2.78
2019-02-14T05:30:27.349Z,-2.79
2019-02-14T05:31:27.526Z,-2.92
2019-02-14T05:32:27.670Z,-2.89
2019-02-14T05:33:27.801Z,-2.84
2019-02-14T05:34:27.982Z,-2.81
2019-02-14T05:35:28.161Z,-2.71
2019-02-14T05:36:28.331Z,-2.79
2019-02-14T05:37:28.459Z,-2.70
2019-02-14T05:38:28.595Z,-2.77
2019-02-14T05:39:28.757Z,-2.74
2019-02-14T05:40:28.954Z,-2.77
2019-02-14T05:41:29.107Z,-2.77
2019-02-14T05:42:29.248Z,-2.66
2019-02-14T05:43:29.364Z,-2.60
2019-02-14T05:44:29.552Z,-2.58
2019-02-14T05:45:29.742Z,-2.58
2019-02-14T05:46:29.880Z,-2.48
2019-02-14T05:47:29.999Z,-2.52
2019-02-14T05:48:30.154Z,-2.48
2019-02-14T05:49:30.350Z,-2.40
2019-02-14T05:50:30.555Z,-2.32
2019-02-14T05:51:30.693Z,-2.45
2019-02-14T05:52:30.848Z,-2.40
2019-02-14T05:53:31.029Z,-2.29
2019-02-14T05:54:31.992Z,-2.40
2019-02-14T05:55:31.414Z,-2.27
2019-02-14T05:56:31.539Z,-2.32
2019-02-14T05:57:31.691Z,-2.34
2019-02-14T05:58:31.882Z,-2.30
2019-02-14T05:59:32.014Z,-2.26
2019-02-14T06:00:32.167Z,-2.27
2019-02-14T06:01:32.344Z,-2.16
2019-02-14T06:02:32.558Z,-2.15
2019-02-14T06:03:32.707Z,-2.20
2019-02-14T06:04:32.837Z,-2.16
2019-02-14T06:05:32.970Z,-2.21
2019-02-14T06:06:33.123Z,-2.23
2019-02-14T06:07:33.264Z,-2.18
2019-02-14T06:08:33.419Z,-2.21
2019-02-14T06:09:33.602Z,-2.15
2019-02-14T06:10:33.734Z,-2.20
2019-02-14T06:11:33.902Z,-2.20
2019-02-14T06:12:34.091Z,-2.18
2019-02-14T06:13:34.239Z,-2.29
2019-02-14T06:14:34.430Z,-2.37
2019-02-14T06:15:34.576Z,-2.20
2019-02-14T06:16:34.725Z,-2.27
2019-02-14T06:17:34.917Z,-2.39
2019-02-14T06:18:35.071Z,-2.32
2019-02-14T06:19:35.236Z,-2.43
2019-02-14T06:20:35.409Z,-2.43
2019-02-14T06:21:35.547Z,-2.39
2019-02-14T06:22:35.724Z,-2.39
2019-02-14T06:23:35.904Z,-2.40
2019-02-14T06:24:36.058Z,-2.40
2019-02-14T06:25:36.237Z,-2.43
2019-02-14T06:26:36.374Z,-2.48
2019-02-14T06:27:37.496Z,-2.48
2019-02-14T06:28:37.382Z,-2.48
2019-02-14T06:29:37.975Z,-2.48
2019-02-14T06:30:37.197Z,-2.42
2019-02-14T06:31:37.371Z,-2.50
2019-02-14T06:32:37.500Z,-2.48
2019-02-14T06:33:37.780Z,-2.52
2019-02-14T06:34:37.940Z,-2.49
2019-02-14T06:35:38.054Z,-2.50
2019-02-14T06:36:38.208Z,-2.53
2019-02-14T06:37:38.328Z,-2.64
2019-02-14T06:38:38.559Z,-2.63
2019-02-14T06:39:38.811Z,-2.66
2019-02-14T06:40:38.937Z,-2.64
2019-02-14T06:41:39.096Z,-2.70
2019-02-14T06:42:39.201Z,-2.74
2019-02-14T06:43:39.356Z,-2.64
2019-02-14T06:44:39.449Z,-2.68
2019-02-14T06:45:39.738Z,-2.71
2019-02-14T06:46:39.809Z,-2.79
2019-02-14T06:47:40.103Z,-2.85
2019-02-14T06:48:40.236Z,-2.82
2019-02-14T06:49:40.369Z,-2.91
2019-02-14T06:50:40.508Z,-2.82
2019-02-14T06:51:40.645Z,-2.85
2019-02-14T06:52:41.368Z,-2.84
